Time;durP1;ratioP1;P1;durP2;ratioP2;P2;SDS_P1;SDS_P2;PMS_P1;PMS_P2;Temp;Humidity;BMP_temperature;BMP_pressure;BME280_temperature;BME280_humidity;BME280_pressure;Samples;Min_cycle;Max_cycle;Signal;HPM_P1;HPM_P2
2021/10/03 00:00:06;;;;;;;11.13;6.30;;;;;;;11.12;51.94;95914.31;5005072;28;20451;-64
2021/10/03 00:02:41;;;;;;;12.23;6.97;;;;;;;11.10;51.99;95905.88;5008267;28;20437;-63
2021/10/03 00:05:11;;;;;;;10.10;6.87;;;;;;;11.09;52.71;95913.97;5006777;28;20443;-64
2021/10/03 00:07:42;;;;;;;10.27;6.73;;;;;;;10.99;52.27;95909.31;5002865;28;20922;-62
2021/10/03 00:10:10;;;;;;;10.80;6.50;;;;;;;11.00;52.44;95910.91;5003484;28;20514;-64
2021/10/03 00:12:37;;;;;;;13.03;6.77;;;;;;;11.05;52.51;95908.41;5001359;28;20476;-65
2021/10/03 00:15:08;;;;;;;11.00;6.93;;;;;;;11.11;52.57;95907.44;5003613;28;20440;-63
2021/10/03 00:17:36;;;;;;;9.40;6.37;;;;;;;11.14;52.22;95907.00;5002407;28;21238;-65
2021/10/03 00:20:05;;;;;;;11.50;5.97;;;;;;;11.05;52.67;95897.09;5006310;28;20585;-66
2021/10/03 00:22:32;;;;;;;9.90;5.97;;;;;;;11.11;52.98;95912.69;5024622;28;20450;-66
2021/10/03 00:24:59;;;;;;;9.93;7.33;;;;;;;11.05;53.07;95897.91;5018626;28;20898;-66
2021/10/03 00:27:26;;;;;;;9.27;6.30;;;;;;;11.04;53.34;95906.78;5010517;28;20452;-64
2021/10/03 00:29:53;;;;;;;11.77;6.43;;;;;;;11.07;53.13;95906.34;4997749;28;20451;-64
2021/10/03 00:32:20;;;;;;;9.67;6.13;;;;;;;11.03;53.43;95913.09;5010353;28;20472;-65
2021/10/03 00:34:47;;;;;;;8.97;6.40;;;;;;;11.03;52.83;95910.47;5010058;28;20550;-66
2021/10/03 00:37:15;;;;;;;8.37;6.33;;;;;;;10.92;53.02;95898.19;5010781;28;20523;-64
2021/10/03 00:39:42;;;;;;;8.37;6.27;;;;;;;10.91;53.54;95904.44;5006253;28;20499;-65
2021/10/03 00:42:09;;;;;;;9.17;6.60;;;;;;;10.94;53.43;95896.13;5014366;28;20646;-64
2021/10/03 00:44:37;;;;;;;10.30;6.40;;;;;;;10.90;53.81;95897.59;5011485;28;20520;-65
2021/10/03 00:47:07;;;;;;;9.97;6.17;;;;;;;10.89;53.81;95889.97;5003075;28;20437;-66
2021/10/03 00:49:36;;;;;;;10.53;6.87;;;;;;;10.40;55.05;95904.41;5002074;28;21466;-65
2021/10/03 00:52:05;;;;;;;9.57;6.57;;;;;;;10.57;54.65;95900.06;5000830;28;20556;-63
2021/10/03 00:54:36;;;;;;;8.30;6.10;;;;;;;10.41;55.02;95905.22;4999454;28;20443;-65
2021/10/03 00:57:04;;;;;;;10.23;6.10;;;;;;;10.59;54.16;95897.22;5012271;28;20546;-63
2021/10/03 00:59:33;;;;;;;7.27;5.90;;;;;;;10.53;54.89;95891.06;5026663;28;20472;-63
2021/10/03 01:02:01;;;;;;;10.47;6.47;;;;;;;10.28;54.55;95846.00;5011099;28;20437;-65
2021/10/03 01:04:28;;;;;;;10.40;6.53;;;;;;;10.55;54.50;95891.66;5010419;28;20471;-65
2021/10/03 01:06:55;;;;;;;10.77;6.53;;;;;;;10.56;54.85;95893.25;5021978;28;20444;-66
2021/10/03 01:09:23;;;;;;;8.57;6.40;;;;;;;10.37;55.38;95893.59;5006815;28;20479;-65
2021/10/03 01:11:50;;;;;;;14.27;6.73;;;;;;;10.25;56.22;95895.44;5010267;28;20483;-66
2021/10/03 01:14:19;;;;;;;12.03;7.07;;;;;;;10.55;54.83;95896.06;5005210;28;20969;-65
2021/10/03 01:16:47;;;;;;;9.43;6.40;;;;;;;10.58;54.59;95891.19;5002727;28;20551;-65
2021/10/03 01:19:15;;;;;;;11.53;6.80;;;;;;;10.51;55.08;95895.75;5011225;28;20530;-65
2021/10/03 01:21:44;;;;;;;9.20;6.90;;;;;;;10.57;55.28;95894.84;5003045;28;20455;-66
2021/10/03 01:24:12;;;;;;;11.20;6.37;;;;;;;10.28;55.74;95887.91;5010252;28;20449;-66
2021/10/03 01:26:40;;;;;;;8.40;6.07;;;;;;;10.24;55.34;95857.97;5011499;28;20437;-65
2021/10/03 01:29:08;;;;;;;8.53;6.17;;;;;;;10.18;55.63;95879.84;5012643;28;20452;-67
2021/10/03 01:31:36;;;;;;;9.07;7.03;;;;;;;10.06;56.43;95873.78;4995937;28;20483;-67
2021/10/03 01:34:03;;;;;;;10.53;6.67;;;;;;;10.16;55.92;95897.63;5009861;28;20454;-67
2021/10/03 01:36:30;;;;;;;10.83;6.23;;;;;;;10.14;56.63;95895.19;5002427;28;20447;-65
2021/10/03 01:38:57;;;;;;;9.30;6.50;;;;;;;10.10;56.61;95893.28;5000170;28;20445;-66
2021/10/03 01:41:24;;;;;;;9.43;6.30;;;;;;;10.14;56.20;95895.19;4999794;28;20453;-66
2021/10/03 01:43:51;;;;;;;10.87;6.50;;;;;;;10.11;56.62;95895.66;5009594;28;20536;-67
2021/10/03 01:46:18;;;;;;;10.50;6.40;;;;;;;10.11;56.40;95894.84;5012093;28;20439;-67
2021/10/03 01:48:47;;;;;;;9.33;6.33;;;;;;;10.02;56.94;95899.63;5002060;28;20543;-66
2021/10/03 01:51:17;;;;;;;10.13;7.27;;;;;;;9.78;57.58;95897.22;4999278;28;20554;-64
2021/10/03 01:53:48;;;;;;;12.10;7.23;;;;;;;9.88;57.06;95900.88;4987954;28;20448;-66
2021/10/03 01:56:17;;;;;;;9.00;6.70;;;;;;;9.65;57.62;95897.41;5016151;28;20849;-65
2021/10/03 01:58:51;;;;;;;8.60;6.87;;;;;;;9.80;57.22;95889.91;5009064;28;20472;-66
2021/10/03 02:01:30;;;;;;;16.50;7.70;;;;;;;9.84;58.12;95888.44;5002992;28;20447;-66
2021/10/03 02:03:58;;;;;;;9.17;7.30;;;;;;;9.87;57.18;95893.25;5000856;28;20463;-65
2021/10/03 02:06:26;;;;;;;9.70;7.17;;;;;;;9.85;57.21;95895.28;5000137;28;20457;-64
2021/10/03 02:08:56;;;;;;;8.83;6.80;;;;;;;9.74;57.77;95898.69;5008304;28;20459;-65
2021/10/03 02:11:25;;;;;;;10.53;6.40;;;;;;;9.80;57.60;95897.75;5007224;28;20454;-65
2021/10/03 02:13:52;;;;;;;11.17;6.43;;;;;;;9.85;58.00;95890.06;5004354;28;21325;-65
2021/10/03 02:16:20;;;;;;;10.93;6.30;;;;;;;9.61;57.67;95894.47;5004722;28;20537;-64
2021/10/03 02:18:47;;;;;;;10.03;7.00;;;;;;;9.49;58.56;95890.22;5014806;28;20440;-64
2021/10/03 02:21:14;;;;;;;12.17;7.33;;;;;;;9.44;58.42;95888.25;5014229;28;20440;-65
2021/10/03 02:23:44;;;;;;;11.60;7.33;;;;;;;9.40;59.00;95886.34;5013239;28;20457;-64
2021/10/03 02:26:12;;;;;;;13.70;7.47;;;;;;;9.43;58.62;95885.88;5010741;28;20460;-64
2021/10/03 02:28:39;;;;;;;17.03;8.00;;;;;;;9.38;58.52;95883.13;5003736;28;20470;-64
2021/10/03 02:31:11;;;;;;;12.43;7.80;;;;;;;9.39;58.24;95889.94;5008011;28;20449;-66
2021/10/03 02:33:41;;;;;;;14.27;7.50;;;;;;;9.27;58.53;95886.53;5001092;28;20487;-66
2021/10/03 02:36:10;;;;;;;14.40;7.13;;;;;;;9.42;58.23;95879.03;5013574;28;20447;-65
2021/10/03 02:38:37;;;;;;;15.10;8.13;;;;;;;9.43;58.30;95886.69;5021397;28;20969;-66
2021/10/03 02:41:07;;;;;;;15.90;8.43;;;;;;;9.33;58.77;95885.59;5018324;28;20447;-67
2021/10/03 02:43:36;;;;;;;13.83;8.40;;;;;;;9.19;58.99;95885.00;4999465;28;20441;-65
2021/10/03 02:46:04;;;;;;;15.27;8.23;;;;;;;9.21;59.24;95883.75;5012450;28;20452;-66
2021/10/03 02:48:34;;;;;;;12.27;8.47;;;;;;;9.46;57.95;95877.56;5005323;28;20847;-65
2021/10/03 02:51:03;;;;;;;14.00;9.50;;;;;;;9.37;58.09;95876.31;5001939;28;20463;-65
2021/10/03 02:53:30;;;;;;;14.20;9.03;;;;;;;9.32;58.31;95886.63;5012698;28;20488;-65
2021/10/03 02:55:57;;;;;;;19.03;9.57;;;;;;;9.28;58.78;95888.09;4999653;28;20503;-65
2021/10/03 02:58:24;;;;;;;18.37;10.77;;;;;;;9.19;59.04;95896.28;5011279;28;20480;-66
2021/10/03 03:00:53;;;;;;;16.77;9.73;;;;;;;9.26;58.01;95895.38;5012823;28;20453;-67
2021/10/03 03:03:20;;;;;;;11.77;7.80;;;;;;;9.12;59.08;95900.78;4997832;28;20441;-66
2021/10/03 03:05:48;;;;;;;12.40;8.33;;;;;;;9.35;58.20;95894.03;4999376;28;20441;-66
2021/10/03 03:08:16;;;;;;;11.37;8.20;;;;;;;9.38;58.58;95893.59;5012190;28;20937;-66
2021/10/03 03:10:43;;;;;;;11.20;7.73;;;;;;;9.45;57.65;95889.06;5007480;28;20446;-67
2021/10/03 03:13:11;;;;;;;12.77;7.57;;;;;;;9.34;58.22;95902.91;5008699;28;20552;-66
2021/10/03 03:15:38;;;;;;;14.20;8.33;;;;;;;9.37;57.63;95892.78;5016477;28;20803;-67
2021/10/03 03:18:05;;;;;;;16.60;8.17;;;;;;;9.26;58.58;95895.38;5002206;28;20459;-65
2021/10/03 03:20:32;;;;;;;10.57;8.20;;;;;;;9.27;58.72;95896.97;5027069;28;20443;-66
2021/10/03 03:22:59;;;;;;;12.40;7.93;;;;;;;9.23;58.52;95902.63;5025217;28;20540;-65
2021/10/03 03:25:26;;;;;;;13.33;8.33;;;;;;;9.23;58.06;95898.44;5018141;28;20486;-66
2021/10/03 03:27:53;;;;;;;11.63;7.40;;;;;;;9.12;58.94;95890.31;5005482;28;20494;-66
2021/10/03 03:30:20;;;;;;;14.40;7.30;;;;;;;9.09;58.19;95896.00;5002105;28;20441;-67
2021/10/03 03:32:47;;;;;;;12.93;7.33;;;;;;;9.03;59.03;95886.41;4994153;28;20476;-65
2021/10/03 03:35:14;;;;;;;10.57;7.50;;;;;;;9.08;58.57;95883.16;5002369;28;20494;-65
2021/10/03 03:37:42;;;;;;;10.03;7.00;;;;;;;9.04;58.87;95888.03;5011558;28;20444;-66
2021/10/03 03:40:12;;;;;;;12.07;7.27;;;;;;;8.99;58.39;95893.13;5009147;28;20526;-66
2021/10/03 03:42:39;;;;;;;9.70;7.13;;;;;;;9.00;59.30;95896.50;5005838;28;20449;-66
2021/10/03 03:45:07;;;;;;;16.93;8.40;;;;;;;8.85;58.83;95888.28;5004912;28;20455;-66
2021/10/03 03:47:34;;;;;;;10.83;8.47;;;;;;;8.86;59.34;95885.44;5007351;28;20455;-64
2021/10/03 03:50:02;;;;;;;13.93;9.00;;;;;;;8.89;59.46;95881.56;5006071;28;20955;-65
2021/10/03 03:52:29;;;;;;;18.83;11.43;;;;;;;8.86;58.37;95880.22;5019163;28;20488;-66
2021/10/03 03:54:56;;;;;;;17.70;11.00;;;;;;;8.92;58.65;95879.31;5024259;28;20455;-66
2021/10/03 03:57:22;;;;;;;17.30;12.13;;;;;;;9.01;58.19;95874.59;5011220;28;20837;-66
2021/10/03 03:59:49;;;;;;;17.97;11.70;;;;;;;8.96;58.74;95885.72;5008526;28;20538;-66
2021/10/03 04:02:17;;;;;;;18.63;12.23;;;;;;;8.98;58.03;95875.81;5021365;28;20455;-66
2021/10/03 04:04:44;;;;;;;17.30;10.93;;;;;;;8.79;58.76;95883.94;5011470;28;20456;-66
2021/10/03 04:07:12;;;;;;;17.73;10.80;;;;;;;8.71;61.07;95877.19;5007133;28;20556;-66
2021/10/03 04:09:39;;;;;;;13.80;9.57;;;;;;;8.82;59.53;95873.03;5010551;28;20802;-66
2021/10/03 04:12:08;;;;;;;14.93;10.90;;;;;;;8.76;59.46;95879.94;5014947;28;20553;-65
2021/10/03 04:14:35;;;;;;;17.87;10.50;;;;;;;8.76;59.08;95887.78;5007942;28;20441;-64
2021/10/03 04:17:02;;;;;;;15.30;10.83;;;;;;;8.67;59.37;95891.69;5007596;28;20832;-65
2021/10/03 04:19:30;;;;;;;17.50;11.20;;;;;;;8.62;59.23;95885.53;5001540;28;20503;-65
2021/10/03 04:21:57;;;;;;;15.23;9.93;;;;;;;8.60;59.09;95888.38;5009259;28;20464;-65
2021/10/03 04:24:24;;;;;;;14.80;10.17;;;;;;;8.63;59.99;95884.53;5010307;28;21006;-67
2021/10/03 04:26:51;;;;;;;14.27;8.87;;;;;;;8.64;59.51;95896.56;5016410;28;20860;-66
2021/10/03 04:29:18;;;;;;;14.00;9.00;;;;;;;8.57;60.15;95896.66;5023025;28;20448;-66
2021/10/03 04:31:44;;;;;;;11.40;8.83;;;;;;;8.65;59.66;95904.19;4998498;28;20449;-66
2021/10/03 04:34:11;;;;;;;11.77;8.17;;;;;;;8.65;59.74;95898.94;5010615;28;20516;-66
2021/10/03 04:36:38;;;;;;;12.10;8.00;;;;;;;8.71;59.84;95907.72;4991368;28;20444;-66
2021/10/03 04:39:06;;;;;;;12.77;8.73;;;;;;;8.72;60.23;95910.13;5002718;28;20805;-65
2021/10/03 04:41:33;;;;;;;9.80;7.90;;;;;;;8.81;59.72;95914.03;5008759;28;20440;-66
2021/10/03 04:43:59;;;;;;;11.40;8.77;;;;;;;8.77;59.88;95918.13;5000720;28;20456;-65
2021/10/03 04:46:27;;;;;;;13.20;9.70;;;;;;;8.57;60.38;95907.09;5009006;28;20444;-65
2021/10/03 04:48:55;;;;;;;18.70;11.20;;;;;;;8.63;59.96;95926.34;5010365;28;20440;-65
2021/10/03 04:51:22;;;;;;;21.57;11.10;;;;;;;8.61;60.02;95913.47;5005123;28;20445;-65
2021/10/03 04:53:49;;;;;;;19.80;11.30;;;;;;;8.60;60.54;95927.56;5010746;28;20481;-65
2021/10/03 04:56:16;;;;;;;18.60;12.23;;;;;;;8.66;60.53;95920.66;5005330;28;20587;-67
2021/10/03 04:58:43;;;;;;;23.30;12.20;;;;;;;8.68;60.63;95929.88;5002055;28;20476;-67
2021/10/03 05:01:11;;;;;;;22.57;14.00;;;;;;;8.69;60.72;95926.25;5007482;28;20515;-66
2021/10/03 05:03:38;;;;;;;21.13;13.00;;;;;;;8.77;60.59;95930.38;5007261;28;20448;-68
2021/10/03 05:06:07;;;;;;;21.53;13.23;;;;;;;8.75;59.84;95930.59;4999373;28;20441;-66
2021/10/03 05:08:35;;;;;;;19.87;13.40;;;;;;;8.68;60.78;95935.13;5010325;28;20456;-67
2021/10/03 05:11:03;;;;;;;21.27;12.53;;;;;;;8.78;60.65;95932.78;5009672;28;20505;-66
2021/10/03 05:13:30;;;;;;;17.47;11.90;;;;;;;8.75;60.68;95940.25;5018497;28;20483;-66
2021/10/03 05:15:58;;;;;;;16.83;11.57;;;;;;;8.87;61.08;95943.72;5011410;28;20440;-67
2021/10/03 05:18:25;;;;;;;19.50;11.57;;;;;;;9.03;60.17;95941.31;5001368;28;20437;-66
2021/10/03 05:20:52;;;;;;;16.30;11.07;;;;;;;9.08;60.27;95945.91;4999345;28;21035;-65
2021/10/03 05:23:19;;;;;;;17.60;11.53;;;;;;;9.02;60.31;95942.34;4984152;28;20948;-65
2021/10/03 05:25:47;;;;;;;17.10;12.07;;;;;;;9.04;60.96;95942.94;4985799;28;20457;-66
2021/10/03 05:28:14;;;;;;;18.93;13.73;;;;;;;9.03;60.91;95932.69;4992899;28;20457;-64
2021/10/03 05:30:41;;;;;;;20.63;14.03;;;;;;;9.16;60.33;95933.31;4993605;28;20442;-65
2021/10/03 05:33:08;;;;;;;16.17;12.90;;;;;;;9.24;60.05;95942.66;4993882;28;20473;-66
2021/10/03 05:35:35;;;;;;;19.70;13.33;;;;;;;9.20;60.13;95929.25;4991758;28;20529;-68
2021/10/03 05:38:03;;;;;;;19.87;12.43;;;;;;;9.28;60.84;95941.22;5007173;28;20465;-67
2021/10/03 05:40:31;;;;;;;14.90;11.73;;;;;;;9.48;60.74;95948.78;4993741;28;20956;-67
2021/10/03 05:42:58;;;;;;;13.17;9.93;;;;;;;9.44;59.87;95930.13;4990384;28;20440;-66
2021/10/03 05:45:26;;;;;;;15.57;10.60;;;;;;;9.64;60.64;95948.16;4988920;28;20446;-65
2021/10/03 05:47:53;;;;;;;12.30;9.17;;;;;;;9.56;60.55;95946.63;4991362;28;20449;-66
2021/10/03 05:50:20;;;;;;;12.07;7.90;;;;;;;9.77;59.23;95947.97;4998929;28;20955;-65
2021/10/03 05:52:47;;;;;;;10.73;8.13;;;;;;;9.79;59.46;95951.16;4989875;28;20469;-68
2021/10/03 05:55:14;;;;;;;13.43;7.67;;;;;;;9.84;59.50;95946.03;4993861;28;20468;-66
2021/10/03 05:57:41;;;;;;;9.67;7.80;;;;;;;9.86;59.19;95944.00;4989727;28;20493;-68
2021/10/03 06:00:09;;;;;;;11.43;8.30;;;;;;;10.12;59.14;95941.00;4994089;28;20813;-66
2021/10/03 06:02:36;;;;;;;28.13;20.13;;;;;;;10.22;58.43;95954.31;4991818;28;20438;-64
2021/10/03 06:05:04;;;;;;;229.37;161.17;;;;;;;10.41;58.85;95953.19;4993778;28;20446;-68
2021/10/03 06:07:31;;;;;;;17.97;12.30;;;;;;;10.39;57.45;95950.00;4993944;28;20464;-63
2021/10/03 06:09:59;;;;;;;12.47;7.33;;;;;;;10.27;57.53;95949.22;4988282;28;20464;-65
2021/10/03 06:12:26;;;;;;;10.60;8.10;;;;;;;10.41;57.64;95947.94;4989664;28;21041;-69
2021/10/03 06:14:53;;;;;;;13.83;8.90;;;;;;;10.43;58.23;95935.41;5002597;28;20446;-71
2021/10/03 06:17:20;;;;;;;13.30;9.87;;;;;;;10.40;58.18;95938.47;4993484;28;20971;-63
2021/10/03 06:19:47;;;;;;;24.20;15.00;;;;;;;10.33;58.43;95935.19;4987845;28;20445;-70
2021/10/03 06:22:14;;;;;;;21.07;13.77;;;;;;;10.35;58.19;95942.81;4992014;28;20444;-66
2021/10/03 06:24:41;;;;;;;270.83;152.00;;;;;;;10.51;57.25;95942.13;4991261;28;20557;-65
2021/10/03 06:27:08;;;;;;;25.37;16.73;;;;;;;10.62;57.31;95936.88;4987841;28;20448;-67
2021/10/03 06:29:35;;;;;;;29.90;18.70;;;;;;;10.84;56.25;95937.06;4987136;28;20455;-65
2021/10/03 06:32:02;;;;;;;1302.67;749.70;;;;;;;10.77;57.97;95910.97;4991103;28;20442;-64
2021/10/03 06:34:29;;;;;;;123.87;72.50;;;;;;;10.81;57.09;95940.94;4987036;28;20485;-65
2021/10/03 06:36:56;;;;;;;106.77;83.53;;;;;;;11.15;56.76;95929.56;4985679;28;20506;-67
2021/10/03 06:39:23;;;;;;;18.20;12.37;;;;;;;10.90;56.50;95931.69;4992288;28;20443;-70
2021/10/03 06:41:50;;;;;;;19.20;12.73;;;;;;;11.05;56.55;95942.50;4990307;28;20469;-67
2021/10/03 06:44:17;;;;;;;16.00;11.10;;;;;;;11.00;56.90;95936.34;4994147;28;20455;-67
2021/10/03 06:46:44;;;;;;;25.90;12.30;;;;;;;10.86;57.68;95933.19;4993119;28;20436;-65
2021/10/03 06:49:11;;;;;;;12.47;10.57;;;;;;;11.03;57.55;95943.75;4989272;28;20446;-64
2021/10/03 06:51:42;;;;;;;17.70;10.43;;;;;;;11.00;57.87;95941.59;4991290;28;20457;-67
2021/10/03 06:54:10;;;;;;;16.90;11.30;;;;;;;11.19;57.13;95941.19;4987932;28;21145;-64
2021/10/03 06:56:38;;;;;;;16.53;10.70;;;;;;;11.18;57.35;95939.59;4991679;28;21042;-66
2021/10/03 06:59:05;;;;;;;14.77;10.43;;;;;;;11.35;56.29;95934.38;4990446;28;20505;-67
2021/10/03 07:01:32;;;;;;;12.43;8.63;;;;;;;11.23;56.51;95937.09;4987025;28;20445;-67
2021/10/03 07:03:59;;;;;;;13.63;9.13;;;;;;;11.43;56.03;95941.09;4993257;28;20440;-64
2021/10/03 07:06:26;;;;;;;12.50;8.60;;;;;;;11.45;56.03;95936.41;4999131;28;20448;-64
2021/10/03 07:08:52;;;;;;;15.33;9.03;;;;;;;11.79;55.73;95935.47;4993132;28;20447;-63
2021/10/03 07:11:19;;;;;;;15.40;9.80;;;;;;;11.67;55.77;95940.00;4989101;28;20993;-66
2021/10/03 07:13:46;;;;;;;15.67;10.00;;;;;;;11.57;57.06;95942.41;4991426;28;20500;-65
2021/10/03 07:16:14;;;;;;;21.67;15.63;;;;;;;11.64;56.21;95943.06;4997925;28;20535;-63
2021/10/03 07:18:41;;;;;;;14.27;9.70;;;;;;;11.76;55.64;95947.25;4993732;28;20456;-63
2021/10/03 07:21:08;;;;;;;21.93;9.20;;;;;;;12.10;55.26;95945.44;4992739;28;20805;-65
2021/10/03 07:23:35;;;;;;;16.87;8.57;;;;;;;12.05;55.19;95945.34;4992581;28;20516;-68
2021/10/03 07:26:02;;;;;;;15.47;8.30;;;;;;;11.89;55.57;95946.16;4993937;28;20448;-65
2021/10/03 07:28:29;;;;;;;18.57;8.33;;;;;;;11.90;54.91;95918.84;4997182;28;20456;-67
2021/10/03 07:30:56;;;;;;;15.23;8.97;;;;;;;12.29;54.35;95952.06;4993289;28;20915;-65
2021/10/03 07:33:23;;;;;;;15.50;8.83;;;;;;;12.53;54.15;95950.03;4992684;28;21015;-66
2021/10/03 07:35:50;;;;;;;15.20;8.73;;;;;;;12.57;53.58;95954.56;4996149;28;20488;-65
2021/10/03 07:38:17;;;;;;;13.10;8.77;;;;;;;12.49;53.17;95936.56;5001250;28;20450;-66
2021/10/03 07:40:45;;;;;;;23.87;15.73;;;;;;;12.54;53.08;95948.97;5002762;28;20991;-68
2021/10/03 07:43:12;;;;;;;29.77;16.37;;;;;;;12.45;53.73;95956.50;5002301;28;20454;-70
2021/10/03 07:45:39;;;;;;;58.77;46.63;;;;;;;12.54;54.24;95960.31;4991563;28;20446;-66
2021/10/03 07:48:06;;;;;;;18.67;11.40;;;;;;;12.77;54.09;95959.31;4992843;28;20449;-68
2021/10/03 07:50:34;;;;;;;53.23;38.33;;;;;;;12.93;52.94;95954.00;4993948;28;20453;-61
2021/10/03 07:53:00;;;;;;;24.10;15.63;;;;;;;13.11;51.91;95956.38;4995464;28;20893;-67
2021/10/03 07:55:30;;;;;;;17.37;11.40;;;;;;;12.97;51.91;95960.34;4993805;28;20552;-66
2021/10/03 07:58:02;;;;;;;29.43;21.37;;;;;;;12.66;54.03;95963.66;4991818;28;20492;-68
2021/10/03 08:00:31;;;;;;;17.93;12.30;;;;;;;12.78;53.46;95951.19;4991558;28;20441;-63
2021/10/03 08:02:58;;;;;;;44.90;32.50;;;;;;;13.14;52.58;95960.34;4992503;28;20464;-66
2021/10/03 08:05:26;;;;;;;50.77;34.77;;;;;;;13.17;53.35;95958.00;4994133;28;20463;-66
2021/10/03 08:07:53;;;;;;;21.40;12.13;;;;;;;13.50;51.13;95958.91;4991596;28;20473;-64
2021/10/03 08:10:21;;;;;;;20.77;10.87;;;;;;;13.49;52.59;95958.13;4993443;28;20445;-66
2021/10/03 08:12:48;;;;;;;18.40;10.93;;;;;;;13.61;51.71;95950.06;4991127;28;20438;-65
2021/10/03 08:15:16;;;;;;;20.33;10.93;;;;;;;14.07;50.36;95947.59;4992975;28;20489;-68
2021/10/03 08:17:43;;;;;;;20.87;10.50;;;;;;;14.11;48.39;95945.25;4997070;28;20440;-68
2021/10/03 08:20:15;;;;;;;17.77;10.97;;;;;;;14.04;48.87;95949.94;4992697;28;20500;-67
2021/10/03 08:22:42;;;;;;;16.50;10.17;;;;;;;14.14;48.75;95945.53;4995381;28;20548;-63
2021/10/03 08:25:09;;;;;;;20.53;11.70;;;;;;;14.18;51.53;95945.84;4993529;28;20453;-72
2021/10/03 08:27:36;;;;;;;18.37;10.20;;;;;;;14.37;49.32;95949.72;4993815;28;20467;-71
2021/10/03 08:30:09;;;;;;;16.17;10.00;;;;;;;13.79;48.29;95936.56;4994090;28;20438;-74
2021/10/03 08:32:37;;;;;;;15.60;10.30;;;;;;;14.33;48.58;95939.91;4991235;28;20449;-73
2021/10/03 08:35:07;;;;;;;16.63;9.03;;;;;;;14.43;47.83;95937.38;4996302;28;20483;-70
2021/10/03 08:37:35;;;;;;;17.90;10.47;;;;;;;14.74;46.74;95923.31;4991522;28;21320;-70
2021/10/03 08:40:04;;;;;;;19.67;12.70;;;;;;;15.14;46.28;95926.13;4992421;28;20454;-70
2021/10/03 08:42:32;;;;;;;23.00;15.23;;;;;;;15.30;46.66;95917.22;4990403;28;20458;-74
2021/10/03 08:45:00;;;;;;;15.40;11.30;;;;;;;15.41;45.28;95926.78;4996968;28;20444;-73
2021/10/03 08:47:27;;;;;;;16.93;10.80;;;;;;;15.15;46.74;95931.16;4994605;28;20453;-72
2021/10/03 08:49:57;;;;;;;19.87;11.67;;;;;;;15.49;46.88;95925.47;5007532;28;20532;-70
2021/10/03 08:52:25;;;;;;;26.80;15.83;;;;;;;15.83;45.99;95927.41;5010340;28;20849;-70
2021/10/03 08:54:53;;;;;;;25.43;12.63;;;;;;;15.54;44.34;95907.00;5013425;28;20495;-72
2021/10/03 08:57:20;;;;;;;20.13;12.17;;;;;;;15.89;44.36;95926.31;5009788;28;20985;-69
2021/10/03 09:00:05;;;;;;;14.67;9.70;;;;;;;16.04;45.85;95917.59;5010472;28;20452;-70
2021/10/03 09:03:12;;;;;;;20.87;8.70;;;;;;;16.08;43.62;95889.59;4997641;28;20437;-69
2021/10/03 09:05:50;;;;;;;56.67;40.57;;;;;;;16.34;42.90;95899.09;5009860;28;20436;-71
2021/10/03 09:08:28;;;;;;;27.67;21.57;;;;;;;16.66;44.18;95904.88;5016775;28;20447;-73
2021/10/03 09:11:08;;;;;;;18.17;11.77;;;;;;;16.69;43.24;95904.34;5008715;28;20448;-75
2021/10/03 09:13:35;;;;;;;83.67;59.80;;;;;;;16.70;43.68;95903.28;5009770;28;20475;-74
2021/10/03 09:16:15;;;;;;;14.63;9.33;;;;;;;16.37;42.17;95895.13;5004339;28;20444;-72
2021/10/03 09:18:46;;;;;;;32.27;23.30;;;;;;;16.76;44.73;95890.81;5004737;28;20440;-73
2021/10/03 09:21:28;;;;;;;40.13;33.97;;;;;;;16.91;42.94;95891.59;5009037;28;20455;-76
2021/10/03 09:24:03;;;;;;;22.50;12.60;;;;;;;16.92;43.40;95858.75;5010295;28;20456;-72
2021/10/03 09:26:31;;;;;;;13.53;8.90;;;;;;;17.49;42.88;95881.25;4994087;28;20505;-72
2021/10/03 09:28:58;;;;;;;17.50;11.83;;;;;;;17.76;41.94;95871.81;5004297;28;20441;-68
2021/10/03 09:31:25;;;;;;;14.73;8.77;;;;;;;17.97;41.69;95872.44;4998619;28;20535;-72
2021/10/03 09:33:54;;;;;;;14.63;8.23;;;;;;;18.06;41.04;95870.78;5009857;28;20472;-72
2021/10/03 09:36:43;;;;;;;9.07;5.93;;;;;;;17.75;41.25;95869.44;4995256;28;20976;-69
2021/10/03 09:39:10;;;;;;;9.57;6.33;;;;;;;17.73;40.98;95860.97;4990373;28;20449;-74
2021/10/03 09:41:43;;;;;;;7.53;5.70;;;;;;;17.58;40.28;95880.41;4991522;28;20803;-70
2021/10/03 09:44:12;;;;;;;12.20;5.53;;;;;;;17.94;40.79;95872.97;4989374;28;20456;-68
2021/10/03 09:46:51;;;;;;;9.93;5.60;;;;;;;18.24;40.78;95875.41;5005928;28;20599;-70
2021/10/03 09:49:24;;;;;;;12.93;4.90;;;;;;;18.43;38.70;95863.03;4991663;28;20309;-72
2021/10/03 09:51:52;;;;;;;11.60;5.67;;;;;;;18.51;38.60;95862.41;4996457;28;20547;-72
2021/10/03 09:54:21;;;;;;;48.77;35.47;;;;;;;18.70;37.92;95865.91;5010075;28;20618;-69
2021/10/03 09:56:52;;;;;;;66.20;54.57;;;;;;;18.87;38.46;95855.63;5007997;28;20224;-73
2021/10/03 09:59:20;;;;;;;10.03;5.23;;;;;;;18.92;37.75;95858.22;5008934;28;20264;-71
2021/10/03 10:01:48;;;;;;;8.40;6.33;;;;;;;18.75;36.87;95835.88;5007549;28;20228;-67
2021/10/03 10:04:17;;;;;;;13.40;4.90;;;;;;;18.71;35.18;95824.22;4989915;28;20679;-67
2021/10/03 10:06:45;;;;;;;8.03;4.40;;;;;;;18.92;37.38;95846.84;5000893;28;20205;-69
2021/10/03 10:09:19;;;;;;;8.53;4.27;;;;;;;18.95;36.83;95838.28;5004979;28;20208;-72
2021/10/03 10:11:55;;;;;;;20.57;4.43;;;;;;;18.90;35.09;95838.34;5006067;28;20925;-70
2021/10/03 10:14:29;;;;;;;9.70;5.10;;;;;;;18.03;36.67;95837.63;5007619;28;20224;-73
2021/10/03 10:17:00;;;;;;;10.27;5.03;;;;;;;18.39;36.99;95827.50;5007702;28;20205;-74
2021/10/03 10:19:32;;;;;;;200.47;147.73;;;;;;;18.82;37.29;95821.19;5007449;28;20894;-69
2021/10/03 10:22:20;;;;;;;10.87;5.63;;;;;;;18.94;37.39;95818.91;5008981;28;20216;-75
2021/10/03 10:24:53;;;;;;;11.23;4.43;;;;;;;18.81;36.91;95798.34;5009316;28;20221;-67
2021/10/03 10:27:28;;;;;;;8.40;7.10;;;;;;;19.23;36.73;95806.28;5008816;28;20548;-67
2021/10/03 10:29:57;;;;;;;7.70;4.30;;;;;;;19.45;38.12;95819.03;5001831;28;20264;-66
2021/10/03 10:32:29;;;;;;;11.20;7.37;;;;;;;19.34;35.83;95799.00;5015479;28;20680;-70
2021/10/03 10:35:08;;;;;;;5.57;4.40;;;;;;;19.44;36.59;95796.19;5000534;28;20226;-68
2021/10/03 10:37:56;;;;;;;7.40;4.43;;;;;;;19.61;35.48;95790.34;4994051;28;20200;-70
2021/10/03 10:40:24;;;;;;;8.37;3.97;;;;;;;19.55;36.01;95791.50;5009615;28;20224;-72
2021/10/03 10:43:04;;;;;;;6.60;4.27;;;;;;;19.77;36.29;95784.50;5015602;28;20194;-71
2021/10/03 10:45:33;;;;;;;4.93;3.90;;;;;;;19.66;36.89;95788.41;5010054;28;20194;-68
2021/10/03 10:48:10;;;;;;;7.30;4.30;;;;;;;19.67;36.68;95789.19;5010307;28;20198;-69
2021/10/03 10:50:49;;;;;;;8.93;4.47;;;;;;;19.84;35.65;95774.28;5007076;28;20308;-67
2021/10/03 10:53:16;;;;;;;6.67;4.07;;;;;;;19.49;36.46;95776.72;5020049;28;20204;-67
2021/10/03 10:56:02;;;;;;;6.43;3.80;;;;;;;19.85;34.78;95777.72;5011128;28;20291;-72
2021/10/03 10:58:30;;;;;;;6.23;3.97;;;;;;;20.07;34.99;95768.00;5008591;28;20233;-68
2021/10/03 11:01:19;;;;;;;37.10;28.97;;;;;;;19.95;34.03;95767.69;5000041;28;20209;-67
2021/10/03 11:03:52;;;;;;;5.90;4.47;;;;;;;20.06;33.07;95760.31;4993716;28;20205;-71
2021/10/03 11:06:20;;;;;;;7.30;4.20;;;;;;;20.15;34.94;95763.88;5011944;28;20209;-70
2021/10/03 11:09:02;;;;;;;11.77;6.40;;;;;;;20.28;34.91;95757.81;5012544;28;20217;-68
2021/10/03 11:11:36;;;;;;;9.33;4.60;;;;;;;20.70;33.91;95754.84;5012684;28;20667;-69
2021/10/03 11:14:05;;;;;;;7.70;3.77;;;;;;;20.94;32.03;95739.44;5012181;28;20312;-69
2021/10/03 11:16:38;;;;;;;6.03;3.43;;;;;;;20.96;31.97;95749.78;5011638;28;20682;-69
2021/10/03 11:19:14;;;;;;;8.57;4.17;;;;;;;21.00;32.67;95737.47;5012119;28;20208;-70
2021/10/03 11:21:46;;;;;;;6.83;3.63;;;;;;;21.27;31.30;95731.25;5011908;28;20201;-68
2021/10/03 11:24:23;;;;;;;7.97;3.70;;;;;;;21.26;30.92;95729.69;5011690;28;20716;-70
2021/10/03 11:26:50;;;;;;;7.07;3.87;;;;;;;21.21;31.70;95727.91;5011400;28;20652;-70
2021/10/03 11:29:22;;;;;;;6.90;3.90;;;;;;;21.49;30.74;95728.59;5011528;28;20201;-69
2021/10/03 11:31:56;;;;;;;7.30;4.00;;;;;;;21.80;30.81;95721.44;5019952;28;20209;-68
2021/10/03 11:34:28;;;;;;;11.13;3.67;;;;;;;21.88;30.04;95715.34;5016350;28;20221;-68